sensor_id;sensor_type;location;lat;lon;timestamp;temperature;humidity
51968;DHT22;75327;42.568;23.176;2024-02-21T00:10:42;2.80;99.90
51968;DHT22;75327;42.568;23.176;2024-02-21T00:25:45;2.80;99.90
51968;DHT22;75327;42.568;23.176;2024-02-21T00:40:47;2.80;99.90
51968;DHT22;75327;42.568;23.176;2024-02-21T00:55:49;2.90;99.90
51968;DHT22;75327;42.568;23.176;2024-02-21T01:10:52;2.90;99.90
51968;DHT22;75327;42.568;23.176;2024-02-21T01:25:54;2.90;99.90
51968;DHT22;75327;42.568;23.176;2024-02-21T01:40:58;2.80;99.90
51968;DHT22;75327;42.568;23.176;2024-02-21T01:56:00;2.80;99.90
51968;DHT22;75327;42.568;23.176;2024-02-21T02:11:03;2.80;99.90
51968;DHT22;75327;42.568;23.176;2024-02-21T02:26:06;2.80;99.90
51968;DHT22;75327;42.568;23.176;2024-02-21T02:41:09;2.80;99.90
51968;DHT22;75327;42.568;23.176;2024-02-21T02:56:15;2.70;99.90
51968;DHT22;75327;42.568;23.176;2024-02-21T03:11:17;2.80;99.90
51968;DHT22;75327;42.568;23.176;2024-02-21T03:26:20;2.70;99.90
51968;DHT22;75327;42.568;23.176;2024-02-21T03:41:22;2.70;99.90
51968;DHT22;75327;42.568;23.176;2024-02-21T03:56:24;2.70;99.90
51968;DHT22;75327;42.568;23.176;2024-02-21T04:11:26;2.70;99.90
51968;DHT22;75327;42.568;23.176;2024-02-21T04:26:28;2.70;99.90
51968;DHT22;75327;42.568;23.176;2024-02-21T04:41:30;2.70;99.90
51968;DHT22;75327;42.568;23.176;2024-02-21T04:56:33;2.70;99.90
51968;DHT22;75327;42.568;23.176;2024-02-21T05:11:36;2.60;99.90
51968;DHT22;75327;42.568;23.176;2024-02-21T05:26:39;2.30;99.90
51968;DHT22;75327;42.568;23.176;2024-02-21T05:41:42;2.10;99.90
51968;DHT22;75327;42.568;23.176;2024-02-21T05:56:45;2.10;99.90
51968;DHT22;75327;42.568;23.176;2024-02-21T06:11:48;2.20;99.90
51968;DHT22;75327;42.568;23.176;2024-02-21T06:26:51;2.30;99.90
51968;DHT22;75327;42.568;23.176;2024-02-21T06:41:53;2.40;99.90
51968;DHT22;75327;42.568;23.176;2024-02-21T06:56:56;2.50;99.90
51968;DHT22;75327;42.568;23.176;2024-02-21T07:11:59;2.60;99.90
51968;DHT22;75327;42.568;23.176;2024-02-21T07:27:01;2.80;99.90
51968;DHT22;75327;42.568;23.176;2024-02-21T07:42:06;3.00;99.90
51968;DHT22;75327;42.568;23.176;2024-02-21T07:57:08;3.20;99.90
51968;DHT22;75327;42.568;23.176;2024-02-21T08:12:10;3.30;99.90
51968;DHT22;75327;42.568;23.176;2024-02-21T08:27:13;3.40;99.90
51968;DHT22;75327;42.568;23.176;2024-02-21T08:42:15;3.60;99.90
51968;DHT22;75327;42.568;23.176;2024-02-21T08:57:17;4.00;99.90
51968;DHT22;75327;42.568;23.176;2024-02-21T09:12:20;4.60;99.90
51968;DHT22;75327;42.568;23.176;2024-02-21T09:27:23;5.00;99.90
51968;DHT22;75327;42.568;23.176;2024-02-21T09:42:37;5.20;99.90
51968;DHT22;75327;42.568;23.176;2024-02-21T09:57:44;5.40;99.90
51968;DHT22;75327;42.568;23.176;2024-02-21T10:12:50;5.60;99.90
51968;DHT22;75327;42.568;23.176;2024-02-21T10:27:54;5.70;99.90
51968;DHT22;75327;42.568;23.176;2024-02-21T10:42:59;5.80;99.90
51968;DHT22;75327;42.568;23.176;2024-02-21T10:58:01;5.80;99.90
51968;DHT22;75327;42.568;23.176;2024-02-21T11:13:08;6.00;99.90
51968;DHT22;75327;42.568;23.176;2024-02-21T11:28:10;6.20;99.90
51968;DHT22;75327;42.568;23.176;2024-02-21T11:43:13;6.20;99.90
51968;DHT22;75327;42.568;23.176;2024-02-21T11:58:16;6.30;99.90
51968;DHT22;75327;42.568;23.176;2024-02-21T12:13:22;6.40;99.90
51968;DHT22;75327;42.568;23.176;2024-02-21T12:28:25;6.30;99.90
51968;DHT22;75327;42.568;23.176;2024-02-21T12:43:28;6.10;99.90
51968;DHT22;75327;42.568;23.176;2024-02-21T12:58:31;5.90;99.90
51968;DHT22;75327;42.568;23.176;2024-02-21T13:13:33;5.80;99.90
51968;DHT22;75327;42.568;23.176;2024-02-21T13:28:36;5.70;99.90
51968;DHT22;75327;42.568;23.176;2024-02-21T13:43:38;5.80;99.90
51968;DHT22;75327;42.568;23.176;2024-02-21T13:58:40;5.80;99.90
51968;DHT22;75327;42.568;23.176;2024-02-21T14:13:42;5.90;99.90
51968;DHT22;75327;42.568;23.176;2024-02-21T14:28:44;5.70;99.90
51968;DHT22;75327;42.568;23.176;2024-02-21T14:43:47;5.70;99.90
51968;DHT22;75327;42.568;23.176;2024-02-21T14:58:50;5.60;99.90
51968;DHT22;75327;42.568;23.176;2024-02-21T15:13:56;5.60;99.90
51968;DHT22;75327;42.568;23.176;2024-02-21T15:28:58;5.50;99.90
51968;DHT22;75327;42.568;23.176;2024-02-21T15:44:01;5.40;99.90
51968;DHT22;75327;42.568;23.176;2024-02-21T15:59:03;5.30;99.90
51968;DHT22;75327;42.568;23.176;2024-02-21T16:14:07;5.10;99.90
51968;DHT22;75327;42.568;23.176;2024-02-21T16:29:09;4.90;99.90
51968;DHT22;75327;42.568;23.176;2024-02-21T16:44:11;4.60;99.90
51968;DHT22;75327;42.568;23.176;2024-02-21T16:59:14;4.60;99.90
51968;DHT22;75327;42.568;23.176;2024-02-21T17:14:16;4.40;99.90
51968;DHT22;75327;42.568;23.176;2024-02-21T17:29:18;4.40;99.90
51968;DHT22;75327;42.568;23.176;2024-02-21T17:44:20;4.30;99.90
51968;DHT22;75327;42.568;23.176;2024-02-21T17:59:23;4.20;99.90
51968;DHT22;75327;42.568;23.176;2024-02-21T18:14:26;4.00;99.90
51968;DHT22;75327;42.568;23.176;2024-02-21T18:29:28;3.90;99.90
51968;DHT22;75327;42.568;23.176;2024-02-21T18:44:40;3.80;99.90
51968;DHT22;75327;42.568;23.176;2024-02-21T18:59:43;3.60;99.90
51968;DHT22;75327;42.568;23.176;2024-02-21T19:14:45;3.50;99.90
51968;DHT22;75327;42.568;23.176;2024-02-21T19:29:47;3.20;99.90
51968;DHT22;75327;42.568;23.176;2024-02-21T19:44:50;3.00;99.90
51968;DHT22;75327;42.568;23.176;2024-02-21T19:59:51;2.80;99.90
51968;DHT22;75327;42.568;23.176;2024-02-21T20:14:55;2.60;99.90
51968;DHT22;75327;42.568;23.176;2024-02-21T20:29:57;2.50;99.90
51968;DHT22;75327;42.568;23.176;2024-02-21T20:44:59;2.40;99.90
51968;DHT22;75327;42.568;23.176;2024-02-21T21:00:05;2.40;99.90
51968;DHT22;75327;42.568;23.176;2024-02-21T21:15:08;2.30;99.90
51968;DHT22;75327;42.568;23.176;2024-02-21T21:30:11;2.30;99.90
51968;DHT22;75327;42.568;23.176;2024-02-21T21:45:13;2.10;99.90
51968;DHT22;75327;42.568;23.176;2024-02-21T22:00:16;2.10;99.90
51968;DHT22;75327;42.568;23.176;2024-02-21T22:15:18;2.00;99.90
51968;DHT22;75327;42.568;23.176;2024-02-21T22:30:21;2.10;99.90
51968;DHT22;75327;42.568;23.176;2024-02-21T22:45:23;2.00;99.90
51968;DHT22;75327;42.568;23.176;2024-02-21T23:00:25;1.90;99.90
51968;DHT22;75327;42.568;23.176;2024-02-21T23:15:27;1.80;99.90
51968;DHT22;75327;42.568;23.176;2024-02-21T23:30:30;1.80;99.90
51968;DHT22;75327;42.568;23.176;2024-02-21T23:45:32;1.70;99.90
